sensor_id;sensor_type;location;lat;lon;timestamp;P1;durP1;ratioP1;P2;durP2;ratioP2
38413;SDS011;24195;48.654;9.294;2022-08-21T05:09:36;4.57;;;4.27;;
38413;SDS011;24195;48.654;9.294;2022-08-21T05:12:03;5.00;;;4.60;;
38413;SDS011;24195;48.654;9.294;2022-08-21T05:14:29;5.33;;;4.90;;
38413;SDS011;24195;48.654;9.294;2022-08-21T05:16:55;6.73;;;5.07;;
38413;SDS011;24195;48.654;9.294;2022-08-21T05:19:21;4.93;;;4.60;;
38413;SDS011;24195;48.654;9.294;2022-08-21T05:21:46;4.90;;;4.60;;
38413;SDS011;24195;48.654;9.294;2022-08-21T05:24:13;5.37;;;4.87;;
38413;SDS011;24195;48.654;9.294;2022-08-21T05:26:39;5.10;;;4.67;;
38413;SDS011;24195;48.654;9.294;2022-08-21T05:29:05;5.80;;;5.33;;
38413;SDS011;24195;48.654;9.294;2022-08-21T05:31:31;6.40;;;4.60;;
38413;SDS011;24195;48.654;9.294;2022-08-21T05:33:57;5.70;;;5.10;;
38413;SDS011;24195;48.654;9.294;2022-08-21T05:36:22;5.60;;;5.03;;
38413;SDS011;24195;48.654;9.294;2022-08-21T05:38:48;5.23;;;4.83;;
38413;SDS011;24195;48.654;9.294;2022-08-21T05:41:14;4.73;;;4.20;;
38413;SDS011;24195;48.654;9.294;2022-08-21T05:43:40;5.07;;;4.67;;
38413;SDS011;24195;48.654;9.294;2022-08-21T05:46:06;5.17;;;4.77;;
38413;SDS011;24195;48.654;9.294;2022-08-21T05:48:33;4.30;;;3.83;;
38413;SDS011;24195;48.654;9.294;2022-08-21T05:51:04;5.47;;;5.07;;
38413;SDS011;24195;48.654;9.294;2022-08-21T05:53:31;5.73;;;5.10;;
38413;SDS011;24195;48.654;9.294;2022-08-21T05:55:58;5.13;;;4.73;;
38413;SDS011;24195;48.654;9.294;2022-08-21T05:58:23;4.97;;;4.67;;
38413;SDS011;24195;48.654;9.294;2022-08-21T06:00:50;5.43;;;4.93;;
38413;SDS011;24195;48.654;9.294;2022-08-21T06:03:20;5.20;;;4.80;;
38413;SDS011;24195;48.654;9.294;2022-08-21T06:05:52;5.30;;;4.80;;
38413;SDS011;24195;48.654;9.294;2022-08-21T06:08:19;5.43;;;4.53;;
38413;SDS011;24195;48.654;9.294;2022-08-21T06:10:46;5.20;;;4.70;;
38413;SDS011;24195;48.654;9.294;2022-08-21T06:13:24;5.33;;;4.93;;
38413;SDS011;24195;48.654;9.294;2022-08-21T06:15:50;5.57;;;5.13;;
38413;SDS011;24195;48.654;9.294;2022-08-21T06:18:25;5.43;;;4.93;;
38413;SDS011;24195;48.654;9.294;2022-08-21T06:20:50;4.90;;;4.40;;
38413;SDS011;24195;48.654;9.294;2022-08-21T06:23:16;5.60;;;5.17;;
38413;SDS011;24195;48.654;9.294;2022-08-21T06:25:41;5.33;;;4.83;;
38413;SDS011;24195;48.654;9.294;2022-08-21T06:28:08;5.10;;;4.70;;
38413;SDS011;24195;48.654;9.294;2022-08-21T06:30:36;5.13;;;4.73;;
38413;SDS011;24195;48.654;9.294;2022-08-21T06:33:03;5.43;;;4.93;;
38413;SDS011;24195;48.654;9.294;2022-08-21T06:35:29;5.47;;;4.97;;
38413;SDS011;24195;48.654;9.294;2022-08-21T06:37:55;4.93;;;4.47;;
38413;SDS011;24195;48.654;9.294;2022-08-21T06:40:22;6.20;;;4.50;;
38413;SDS011;24195;48.654;9.294;2022-08-21T06:43:09;4.90;;;3.90;;
38413;SDS011;24195;48.654;9.294;2022-08-21T06:45:37;5.17;;;4.77;;
38413;SDS011;24195;48.654;9.294;2022-08-21T06:48:04;5.43;;;4.93;;
38413;SDS011;24195;48.654;9.294;2022-08-21T06:50:31;4.93;;;4.53;;
38413;SDS011;24195;48.654;9.294;2022-08-21T06:53:05;4.53;;;4.23;;
38413;SDS011;24195;48.654;9.294;2022-08-21T06:55:35;5.30;;;4.80;;
38413;SDS011;24195;48.654;9.294;2022-08-21T06:58:01;4.93;;;4.53;;
38413;SDS011;24195;48.654;9.294;2022-08-21T07:00:28;5.30;;;4.80;;
38413;SDS011;24195;48.654;9.294;2022-08-21T07:02:54;4.43;;;4.10;;
38413;SDS011;24195;48.654;9.294;2022-08-21T07:05:20;4.30;;;4.00;;
38413;SDS011;24195;48.654;9.294;2022-08-21T07:07:46;4.80;;;4.40;;
38413;SDS011;24195;48.654;9.294;2022-08-21T07:10:12;4.50;;;4.10;;
38413;SDS011;24195;48.654;9.294;2022-08-21T07:12:38;4.83;;;3.90;;
38413;SDS011;24195;48.654;9.294;2022-08-21T07:15:04;4.50;;;4.10;;
38413;SDS011;24195;48.654;9.294;2022-08-21T07:17:30;4.73;;;4.33;;
38413;SDS011;24195;48.654;9.294;2022-08-21T07:19:55;4.40;;;3.70;;
38413;SDS011;24195;48.654;9.294;2022-08-21T07:22:22;4.20;;;3.90;;
38413;SDS011;24195;48.654;9.294;2022-08-21T07:24:48;4.40;;;3.90;;
38413;SDS011;24195;48.654;9.294;2022-08-21T07:27:13;5.90;;;4.23;;
38413;SDS011;24195;48.654;9.294;2022-08-21T07:29:39;5.70;;;4.37;;
38413;SDS011;24195;48.654;9.294;2022-08-21T07:32:05;4.50;;;4.10;;
38413;SDS011;24195;48.654;9.294;2022-08-21T07:34:30;4.30;;;3.90;;
38413;SDS011;24195;48.654;9.294;2022-08-21T07:36:56;5.50;;;4.17;;
38413;SDS011;24195;48.654;9.294;2022-08-21T07:39:22;4.53;;;4.23;;
38413;SDS011;24195;48.654;9.294;2022-08-21T07:41:48;4.10;;;3.80;;
38413;SDS011;24195;48.654;9.294;2022-08-21T07:44:23;5.00;;;4.10;;
38413;SDS011;24195;48.654;9.294;2022-08-21T07:47:03;5.20;;;4.20;;
38413;SDS011;24195;48.654;9.294;2022-08-21T07:49:29;4.80;;;4.10;;
38413;SDS011;24195;48.654;9.294;2022-08-21T07:52:00;4.87;;;4.10;;
38413;SDS011;24195;48.654;9.294;2022-08-21T07:54:26;4.50;;;4.10;;
38413;SDS011;24195;48.654;9.294;2022-08-21T07:56:53;5.53;;;4.47;;
38413;SDS011;24195;48.654;9.294;2022-08-21T07:59:19;4.33;;;4.03;;
38413;SDS011;24195;48.654;9.294;2022-08-21T08:01:44;6.40;;;4.30;;
38413;SDS011;24195;48.654;9.294;2022-08-21T08:04:10;5.63;;;4.30;;
38413;SDS011;24195;48.654;9.294;2022-08-21T08:06:36;10.10;;;9.30;;
38413;SDS011;24195;48.654;9.294;2022-08-21T08:09:01;5.70;;;5.10;;
38413;SDS011;24195;48.654;9.294;2022-08-21T08:11:30;5.03;;;4.53;;
38413;SDS011;24195;48.654;9.294;2022-08-21T08:13:55;7.30;;;4.97;;
38413;SDS011;24195;48.654;9.294;2022-08-21T08:16:24;5.40;;;4.77;;
38413;SDS011;24195;48.654;9.294;2022-08-21T08:19:05;6.13;;;5.13;;
38413;SDS011;24195;48.654;9.294;2022-08-21T08:21:32;7.63;;;5.30;;
38413;SDS011;24195;48.654;9.294;2022-08-21T08:24:00;7.00;;;6.30;;
38413;SDS011;24195;48.654;9.294;2022-08-21T08:26:29;6.07;;;5.47;;
38413;SDS011;24195;48.654;9.294;2022-08-21T08:29:20;5.90;;;5.27;;
38413;SDS011;24195;48.654;9.294;2022-08-21T08:31:47;6.97;;;5.80;;
38413;SDS011;24195;48.654;9.294;2022-08-21T08:34:13;4.90;;;4.47;;
38413;SDS011;24195;48.654;9.294;2022-08-21T08:36:40;6.03;;;5.53;;
38413;SDS011;24195;48.654;9.294;2022-08-21T08:39:07;5.00;;;4.60;;
38413;SDS011;24195;48.654;9.294;2022-08-21T08:41:34;5.33;;;4.93;;
38413;SDS011;24195;48.654;9.294;2022-08-21T08:44:10;5.90;;;4.83;;
38413;SDS011;24195;48.654;9.294;2022-08-21T08:46:41;5.63;;;4.80;;
38413;SDS011;24195;48.654;9.294;2022-08-21T08:54:26;5.10;;;4.70;;
38413;SDS011;24195;48.654;9.294;2022-08-21T08:57:10;6.00;;;5.40;;
38413;SDS011;24195;48.654;9.294;2022-08-21T08:59:43;6.10;;;5.17;;
38413;SDS011;24195;48.654;9.294;2022-08-21T09:02:12;7.13;;;5.63;;
38413;SDS011;24195;48.654;9.294;2022-08-21T09:04:39;5.83;;;5.23;;
38413;SDS011;24195;48.654;9.294;2022-08-21T09:07:12;6.27;;;5.40;;
38413;SDS011;24195;48.654;9.294;2022-08-21T09:10:20;6.20;;;5.30;;
38413;SDS011;24195;48.654;9.294;2022-08-21T09:19:13;5.07;;;4.23;;
38413;SDS011;24195;48.654;9.294;2022-08-21T09:22:26;6.80;;;4.70;;
38413;SDS011;24195;48.654;9.294;2022-08-21T09:25:27;5.43;;;4.47;;
38413;SDS011;24195;48.654;9.294;2022-08-21T09:27:57;4.60;;;3.73;;
38413;SDS011;24195;48.654;9.294;2022-08-21T09:30:30;5.17;;;4.13;;
38413;SDS011;24195;48.654;9.294;2022-08-21T09:32:57;5.20;;;4.20;;
38413;SDS011;24195;48.654;9.294;2022-08-21T09:35:23;5.90;;;4.33;;
38413;SDS011;24195;48.654;9.294;2022-08-21T09:37:57;6.70;;;4.53;;
38413;SDS011;24195;48.654;9.294;2022-08-21T09:40:32;5.83;;;4.27;;
38413;SDS011;24195;48.654;9.294;2022-08-21T09:43:29;6.17;;;4.37;;
38413;SDS011;24195;48.654;9.294;2022-08-21T09:46:06;4.60;;;4.20;;
38413;SDS011;24195;48.654;9.294;2022-08-21T09:48:44;4.40;;;4.00;;
38413;SDS011;24195;48.654;9.294;2022-08-21T09:54:23;5.27;;;4.30;;
38413;SDS011;24195;48.654;9.294;2022-08-21T09:56:56;4.63;;;4.23;;
38413;SDS011;24195;48.654;9.294;2022-08-21T09:59:42;5.93;;;4.77;;
38413;SDS011;24195;48.654;9.294;2022-08-21T10:02:27;5.00;;;4.57;;
38413;SDS011;24195;48.654;9.294;2022-08-21T10:04:54;5.60;;;3.90;;
38413;SDS011;24195;48.654;9.294;2022-08-21T10:07:32;5.80;;;5.20;;
38413;SDS011;24195;48.654;9.294;2022-08-21T10:10:08;6.93;;;4.43;;
38413;SDS011;24195;48.654;9.294;2022-08-21T10:15:27;4.40;;;4.00;;
38413;SDS011;24195;48.654;9.294;2022-08-21T10:20:58;4.67;;;4.27;;
38413;SDS011;24195;48.654;9.294;2022-08-21T10:23:34;3.90;;;3.60;;
38413;SDS011;24195;48.654;9.294;2022-08-21T10:31:32;7.30;;;4.20;;
38413;SDS011;24195;48.654;9.294;2022-08-21T10:40:31;5.23;;;3.80;;
38413;SDS011;24195;48.654;9.294;2022-08-21T10:43:25;6.93;;;4.27;;
38413;SDS011;24195;48.654;9.294;2022-08-21T10:49:14;4.50;;;3.90;;
38413;SDS011;24195;48.654;9.294;2022-08-21T10:51:52;4.10;;;3.43;;
38413;SDS011;24195;48.654;9.294;2022-08-21T10:54:29;4.47;;;4.07;;
38413;SDS011;24195;48.654;9.294;2022-08-21T10:57:27;4.07;;;3.47;;
38413;SDS011;24195;48.654;9.294;2022-08-21T11:00:07;4.87;;;3.27;;
38413;SDS011;24195;48.654;9.294;2022-08-21T11:02:47;4.83;;;4.20;;
38413;SDS011;24195;48.654;9.294;2022-08-21T11:05:54;4.10;;;3.70;;
38413;SDS011;24195;48.654;9.294;2022-08-21T11:08:29;5.50;;;3.57;;
38413;SDS011;24195;48.654;9.294;2022-08-21T11:11:04;4.43;;;3.40;;
38413;SDS011;24195;48.654;9.294;2022-08-21T11:13:53;4.33;;;3.73;;
38413;SDS011;24195;48.654;9.294;2022-08-21T11:16:40;5.97;;;3.40;;
38413;SDS011;24195;48.654;9.294;2022-08-21T11:19:13;4.20;;;3.13;;
38413;SDS011;24195;48.654;9.294;2022-08-21T11:21:57;4.17;;;3.50;;
38413;SDS011;24195;48.654;9.294;2022-08-21T11:24:32;4.30;;;3.40;;
38413;SDS011;24195;48.654;9.294;2022-08-21T11:29:54;4.73;;;3.23;;
38413;SDS011;24195;48.654;9.294;2022-08-21T11:32:42;4.60;;;4.13;;
38413;SDS011;24195;48.654;9.294;2022-08-21T11:41:13;4.33;;;3.60;;
38413;SDS011;24195;48.654;9.294;2022-08-21T11:43:43;3.80;;;3.50;;
38413;SDS011;24195;48.654;9.294;2022-08-21T11:49:06;5.30;;;3.30;;
38413;SDS011;24195;48.654;9.294;2022-08-21T11:52:18;5.87;;;3.90;;
38413;SDS011;24195;48.654;9.294;2022-08-21T11:54:57;5.60;;;3.80;;
38413;SDS011;24195;48.654;9.294;2022-08-21T12:00:13;3.30;;;3.07;;
38413;SDS011;24195;48.654;9.294;2022-08-21T12:02:56;3.77;;;3.30;;
38413;SDS011;24195;48.654;9.294;2022-08-21T12:05:37;4.90;;;3.70;;
38413;SDS011;24195;48.654;9.294;2022-08-21T12:10:38;3.67;;;3.33;;
38413;SDS011;24195;48.654;9.294;2022-08-21T12:13:07;3.43;;;3.13;;
38413;SDS011;24195;48.654;9.294;2022-08-21T12:15:36;6.20;;;3.70;;
38413;SDS011;24195;48.654;9.294;2022-08-21T12:18:35;5.37;;;3.50;;
38413;SDS011;24195;48.654;9.294;2022-08-21T12:21:03;3.97;;;3.67;;
38413;SDS011;24195;48.654;9.294;2022-08-21T12:24:04;3.87;;;3.27;;
38413;SDS011;24195;48.654;9.294;2022-08-21T12:26:50;3.97;;;2.80;;
38413;SDS011;24195;48.654;9.294;2022-08-21T12:31:58;3.27;;;2.97;;
38413;SDS011;24195;48.654;9.294;2022-08-21T12:35:06;6.00;;;3.33;;
38413;SDS011;24195;48.654;9.294;2022-08-21T12:37:40;5.20;;;3.53;;
38413;SDS011;24195;48.654;9.294;2022-08-21T12:40:11;7.27;;;2.60;;
38413;SDS011;24195;48.654;9.294;2022-08-21T12:42:45;3.43;;;3.13;;
38413;SDS011;24195;48.654;9.294;2022-08-21T12:45:36;4.13;;;3.37;;
38413;SDS011;24195;48.654;9.294;2022-08-21T12:48:12;4.83;;;3.97;;
38413;SDS011;24195;48.654;9.294;2022-08-21T12:50:53;3.53;;;3.20;;
38413;SDS011;24195;48.654;9.294;2022-08-21T12:53:28;3.60;;;3.30;;
38413;SDS011;24195;48.654;9.294;2022-08-21T12:56:12;3.67;;;3.00;;
38413;SDS011;24195;48.654;9.294;2022-08-21T12:58:50;3.83;;;3.13;;
38413;SDS011;24195;48.654;9.294;2022-08-21T13:01:21;3.60;;;3.30;;
38413;SDS011;24195;48.654;9.294;2022-08-21T13:03:54;7.57;;;3.27;;
38413;SDS011;24195;48.654;9.294;2022-08-21T13:06:22;3.23;;;2.97;;
38413;SDS011;24195;48.654;9.294;2022-08-21T13:08:52;3.47;;;2.70;;
38413;SDS011;24195;48.654;9.294;2022-08-21T13:11:31;3.70;;;3.33;;
38413;SDS011;24195;48.654;9.294;2022-08-21T13:14:06;3.60;;;3.30;;
38413;SDS011;24195;48.654;9.294;2022-08-21T13:16:53;3.03;;;2.70;;
38413;SDS011;24195;48.654;9.294;2022-08-21T13:19:19;3.00;;;2.70;;
38413;SDS011;24195;48.654;9.294;2022-08-21T13:21:45;3.03;;;2.67;;
38413;SDS011;24195;48.654;9.294;2022-08-21T13:24:16;3.13;;;2.83;;
38413;SDS011;24195;48.654;9.294;2022-08-21T13:26:44;3.90;;;3.00;;
38413;SDS011;24195;48.654;9.294;2022-08-21T13:29:14;2.30;;;2.10;;
38413;SDS011;24195;48.654;9.294;2022-08-21T13:31:46;3.10;;;2.80;;
38413;SDS011;24195;48.654;9.294;2022-08-21T13:34:18;5.33;;;2.40;;
38413;SDS011;24195;48.654;9.294;2022-08-21T13:36:47;3.20;;;2.97;;
38413;SDS011;24195;48.654;9.294;2022-08-21T13:39:17;4.30;;;3.60;;
38413;SDS011;24195;48.654;9.294;2022-08-21T13:41:47;12.17;;;11.13;;
38413;SDS011;24195;48.654;9.294;2022-08-21T13:44:32;2.73;;;2.50;;
38413;SDS011;24195;48.654;9.294;2022-08-21T13:47:04;2.90;;;2.60;;
38413;SDS011;24195;48.654;9.294;2022-08-21T13:49:36;2.83;;;2.63;;
38413;SDS011;24195;48.654;9.294;2022-08-21T13:52:13;3.13;;;2.80;;
38413;SDS011;24195;48.654;9.294;2022-08-21T13:54:41;3.10;;;2.90;;
38413;SDS011;24195;48.654;9.294;2022-08-21T13:57:28;3.90;;;3.10;;
38413;SDS011;24195;48.654;9.294;2022-08-21T14:00:19;3.87;;;2.70;;
38413;SDS011;24195;48.654;9.294;2022-08-21T14:02:51;3.13;;;2.43;;
38413;SDS011;24195;48.654;9.294;2022-08-21T14:05:21;3.00;;;2.23;;
38413;SDS011;24195;48.654;9.294;2022-08-21T14:07:50;5.27;;;2.87;;
38413;SDS011;24195;48.654;9.294;2022-08-21T14:10:28;2.90;;;2.70;;
38413;SDS011;24195;48.654;9.294;2022-08-21T14:12:57;2.73;;;2.53;;
38413;SDS011;24195;48.654;9.294;2022-08-21T14:15:29;3.07;;;2.87;;
38413;SDS011;24195;48.654;9.294;2022-08-21T14:18:16;2.63;;;2.40;;
38413;SDS011;24195;48.654;9.294;2022-08-21T14:20:44;2.80;;;2.60;;
38413;SDS011;24195;48.654;9.294;2022-08-21T14:23:23;2.63;;;2.43;;
38413;SDS011;24195;48.654;9.294;2022-08-21T14:25:50;2.83;;;2.23;;
38413;SDS011;24195;48.654;9.294;2022-08-21T14:30:53;3.13;;;2.58;;
38413;SDS011;24195;48.654;9.294;2022-08-21T14:33:28;2.80;;;2.47;;
38413;SDS011;24195;48.654;9.294;2022-08-21T14:35:55;2.90;;;2.57;;
38413;SDS011;24195;48.654;9.294;2022-08-21T14:38:24;3.90;;;2.77;;
38413;SDS011;24195;48.654;9.294;2022-08-21T14:41:15;3.10;;;2.70;;
38413;SDS011;24195;48.654;9.294;2022-08-21T14:43:54;3.40;;;2.50;;
38413;SDS011;24195;48.654;9.294;2022-08-21T14:46:44;3.43;;;3.07;;
38413;SDS011;24195;48.654;9.294;2022-08-21T14:49:38;2.83;;;2.53;;
38413;SDS011;24195;48.654;9.294;2022-08-21T14:52:04;3.13;;;2.88;;
38413;SDS011;24195;48.654;9.294;2022-08-21T14:55:23;3.00;;;2.80;;
38413;SDS011;24195;48.654;9.294;2022-08-21T14:58:16;3.67;;;3.25;;
38413;SDS011;24195;48.654;9.294;2022-08-21T15:00:42;2.60;;;2.40;;
38413;SDS011;24195;48.654;9.294;2022-08-21T15:03:08;2.88;;;2.50;;
38413;SDS011;24195;48.654;9.294;2022-08-21T15:05:40;3.00;;;2.73;;
38413;SDS011;24195;48.654;9.294;2022-08-21T15:08:08;2.93;;;2.73;;
38413;SDS011;24195;48.654;9.294;2022-08-21T15:10:45;4.30;;;3.00;;
38413;SDS011;24195;48.654;9.294;2022-08-21T15:13:11;3.00;;;2.70;;
38413;SDS011;24195;48.654;9.294;2022-08-21T15:15:39;7.03;;;3.20;;
38413;SDS011;24195;48.654;9.294;2022-08-21T15:18:07;3.20;;;3.00;;
38413;SDS011;24195;48.654;9.294;2022-08-21T15:20:33;3.43;;;3.13;;
38413;SDS011;24195;48.654;9.294;2022-08-21T15:22:59;3.40;;;3.00;;
38413;SDS011;24195;48.654;9.294;2022-08-21T15:25:25;3.40;;;2.90;;
38413;SDS011;24195;48.654;9.294;2022-08-21T15:27:51;3.10;;;2.57;;
38413;SDS011;24195;48.654;9.294;2022-08-21T15:30:17;3.30;;;2.70;;
38413;SDS011;24195;48.654;9.294;2022-08-21T15:32:43;3.70;;;2.80;;
38413;SDS011;24195;48.654;9.294;2022-08-21T15:35:10;2.67;;;2.33;;
38413;SDS011;24195;48.654;9.294;2022-08-21T15:37:36;2.90;;;2.53;;
38413;SDS011;24195;48.654;9.294;2022-08-21T15:40:02;3.07;;;2.80;;
38413;SDS011;24195;48.654;9.294;2022-08-21T15:42:28;2.57;;;2.37;;
38413;SDS011;24195;48.654;9.294;2022-08-21T15:44:54;2.63;;;2.40;;
38413;SDS011;24195;48.654;9.294;2022-08-21T15:47:22;3.23;;;2.50;;
38413;SDS011;24195;48.654;9.294;2022-08-21T15:49:53;3.27;;;2.93;;
38413;SDS011;24195;48.654;9.294;2022-08-21T15:52:22;3.00;;;2.77;;
38413;SDS011;24195;48.654;9.294;2022-08-21T15:55:06;2.80;;;2.60;;
38413;SDS011;24195;48.654;9.294;2022-08-21T15:57:44;2.50;;;2.30;;
38413;SDS011;24195;48.654;9.294;2022-08-21T16:00:25;3.00;;;2.37;;
38413;SDS011;24195;48.654;9.294;2022-08-21T16:02:56;2.90;;;2.70;;
38413;SDS011;24195;48.654;9.294;2022-08-21T16:05:23;3.30;;;2.60;;
38413;SDS011;24195;48.654;9.294;2022-08-21T16:07:49;2.73;;;2.50;;
38413;SDS011;24195;48.654;9.294;2022-08-21T16:10:18;2.73;;;2.43;;
38413;SDS011;24195;48.654;9.294;2022-08-21T16:12:47;3.13;;;2.83;;
38413;SDS011;24195;48.654;9.294;2022-08-21T16:15:16;2.50;;;2.30;;
38413;SDS011;24195;48.654;9.294;2022-08-21T16:17:43;2.45;;;2.25;;
38413;SDS011;24195;48.654;9.294;2022-08-21T16:20:14;3.20;;;2.55;;
38413;SDS011;24195;48.654;9.294;2022-08-21T16:22:42;2.80;;;2.60;;
38413;SDS011;24195;48.654;9.294;2022-08-21T16:25:08;2.55;;;2.17;;
38413;SDS011;24195;48.654;9.294;2022-08-21T16:27:34;2.38;;;2.22;;
38413;SDS011;24195;48.654;9.294;2022-08-21T16:30:00;2.30;;;2.10;;
38413;SDS011;24195;48.654;9.294;2022-08-21T16:32:28;2.70;;;2.50;;
38413;SDS011;24195;48.654;9.294;2022-08-21T16:34:53;2.85;;;2.15;;
38413;SDS011;24195;48.654;9.294;2022-08-21T16:37:20;2.45;;;2.25;;
38413;SDS011;24195;48.654;9.294;2022-08-21T16:39:46;2.40;;;2.20;;
38413;SDS011;24195;48.654;9.294;2022-08-21T16:42:13;2.50;;;2.30;;
38413;SDS011;24195;48.654;9.294;2022-08-21T16:44:42;1.90;;;1.80;;
38413;SDS011;24195;48.654;9.294;2022-08-21T16:47:09;2.42;;;2.28;;
38413;SDS011;24195;48.654;9.294;2022-08-21T16:49:35;3.28;;;2.90;;
38413;SDS011;24195;48.654;9.294;2022-08-21T16:52:01;2.30;;;2.20;;
38413;SDS011;24195;48.654;9.294;2022-08-21T16:54:27;2.00;;;1.90;;
38413;SDS011;24195;48.654;9.294;2022-08-21T16:56:54;2.30;;;2.10;;
38413;SDS011;24195;48.654;9.294;2022-08-21T16:59:21;3.47;;;2.83;;
38413;SDS011;24195;48.654;9.294;2022-08-21T17:01:46;3.30;;;3.10;;
38413;SDS011;24195;48.654;9.294;2022-08-21T17:04:12;3.35;;;3.10;;
38413;SDS011;24195;48.654;9.294;2022-08-21T17:06:38;3.58;;;2.92;;
38413;SDS011;24195;48.654;9.294;2022-08-21T17:09:03;2.40;;;2.28;;
38413;SDS011;24195;48.654;9.294;2022-08-21T17:14:00;2.38;;;2.17;;
38413;SDS011;24195;48.654;9.294;2022-08-21T17:16:27;2.50;;;2.15;;
38413;SDS011;24195;48.654;9.294;2022-08-21T17:18:55;2.22;;;2.10;;
38413;SDS011;24195;48.654;9.294;2022-08-21T17:21:21;2.83;;;2.50;;
38413;SDS011;24195;48.654;9.294;2022-08-21T17:23:47;2.53;;;2.33;;
38413;SDS011;24195;48.654;9.294;2022-08-21T17:26:13;2.80;;;2.43;;
38413;SDS011;24195;48.654;9.294;2022-08-21T17:28:39;3.10;;;2.30;;
38413;SDS011;24195;48.654;9.294;2022-08-21T17:31:07;3.40;;;2.90;;
38413;SDS011;24195;48.654;9.294;2022-08-21T17:33:35;2.47;;;2.27;;
38413;SDS011;24195;48.654;9.294;2022-08-21T17:36:15;2.60;;;2.40;;
38413;SDS011;24195;48.654;9.294;2022-08-21T17:38:42;2.70;;;2.40;;
38413;SDS011;24195;48.654;9.294;2022-08-21T17:41:07;3.20;;;2.20;;
38413;SDS011;24195;48.654;9.294;2022-08-21T17:43:36;2.70;;;2.50;;
38413;SDS011;24195;48.654;9.294;2022-08-21T17:46:04;3.27;;;2.87;;
38413;SDS011;24195;48.654;9.294;2022-08-21T17:48:31;3.53;;;3.20;;
38413;SDS011;24195;48.654;9.294;2022-08-21T17:50:57;3.93;;;2.87;;
38413;SDS011;24195;48.654;9.294;2022-08-21T17:53:23;3.73;;;3.03;;
38413;SDS011;24195;48.654;9.294;2022-08-21T17:55:49;4.20;;;3.20;;
38413;SDS011;24195;48.654;9.294;2022-08-21T17:58:15;3.17;;;2.67;;
38413;SDS011;24195;48.654;9.294;2022-08-21T18:00:41;2.90;;;2.70;;
38413;SDS011;24195;48.654;9.294;2022-08-21T18:03:10;2.93;;;2.73;;
38413;SDS011;24195;48.654;9.294;2022-08-21T18:05:46;3.53;;;2.70;;
38413;SDS011;24195;48.654;9.294;2022-08-21T18:08:19;3.13;;;2.80;;
38413;SDS011;24195;48.654;9.294;2022-08-21T18:10:48;3.00;;;2.80;;
38413;SDS011;24195;48.654;9.294;2022-08-21T18:13:22;2.90;;;2.70;;
38413;SDS011;24195;48.654;9.294;2022-08-21T18:16:04;3.17;;;2.87;;
38413;SDS011;24195;48.654;9.294;2022-08-21T18:18:32;5.13;;;2.93;;
38413;SDS011;24195;48.654;9.294;2022-08-21T18:26:44;3.67;;;3.30;;
38413;SDS011;24195;48.654;9.294;2022-08-21T18:42:51;3.50;;;3.07;;
38413;SDS011;24195;48.654;9.294;2022-08-21T18:45:40;3.23;;;2.90;;
38413;SDS011;24195;48.654;9.294;2022-08-21T18:48:10;3.13;;;2.93;;
38413;SDS011;24195;48.654;9.294;2022-08-21T18:50:42;4.10;;;3.23;;
38413;SDS011;24195;48.654;9.294;2022-08-21T18:53:10;3.30;;;3.00;;
38413;SDS011;24195;48.654;9.294;2022-08-21T18:55:40;4.50;;;3.40;;
38413;SDS011;24195;48.654;9.294;2022-08-21T18:58:32;2.97;;;2.77;;
38413;SDS011;24195;48.654;9.294;2022-08-21T19:00:59;3.70;;;2.63;;
38413;SDS011;24195;48.654;9.294;2022-08-21T19:03:24;3.23;;;2.93;;
38413;SDS011;24195;48.654;9.294;2022-08-21T19:05:51;3.70;;;3.00;;
38413;SDS011;24195;48.654;9.294;2022-08-21T19:08:18;3.83;;;3.30;;
38413;SDS011;24195;48.654;9.294;2022-08-21T19:10:46;4.97;;;3.30;;
38413;SDS011;24195;48.654;9.294;2022-08-21T19:13:14;4.60;;;3.00;;
38413;SDS011;24195;48.654;9.294;2022-08-21T19:15:43;4.10;;;2.50;;
38413;SDS011;24195;48.654;9.294;2022-08-21T19:18:13;4.23;;;3.10;;
38413;SDS011;24195;48.654;9.294;2022-08-21T19:20:40;4.90;;;4.47;;
38413;SDS011;24195;48.654;9.294;2022-08-21T19:23:06;2.90;;;2.60;;
38413;SDS011;24195;48.654;9.294;2022-08-21T19:25:35;3.30;;;3.10;;
38413;SDS011;24195;48.654;9.294;2022-08-21T19:28:03;3.20;;;3.00;;
38413;SDS011;24195;48.654;9.294;2022-08-21T19:30:33;3.73;;;2.90;;
38413;SDS011;24195;48.654;9.294;2022-08-21T19:33:01;3.90;;;3.50;;
38413;SDS011;24195;48.654;9.294;2022-08-21T19:35:27;3.70;;;3.40;;
38413;SDS011;24195;48.654;9.294;2022-08-21T19:37:53;3.03;;;2.67;;
38413;SDS011;24195;48.654;9.294;2022-08-21T19:40:18;3.03;;;2.83;;
38413;SDS011;24195;48.654;9.294;2022-08-21T19:42:44;4.40;;;2.97;;
38413;SDS011;24195;48.654;9.294;2022-08-21T19:45:11;3.33;;;3.03;;
38413;SDS011;24195;48.654;9.294;2022-08-21T19:47:39;6.60;;;3.30;;
38413;SDS011;24195;48.654;9.294;2022-08-21T19:50:09;4.20;;;3.03;;
38413;SDS011;24195;48.654;9.294;2022-08-21T19:52:35;3.90;;;3.23;;
38413;SDS011;24195;48.654;9.294;2022-08-21T19:55:03;5.30;;;3.60;;
38413;SDS011;24195;48.654;9.294;2022-08-21T19:57:31;3.10;;;2.90;;
38413;SDS011;24195;48.654;9.294;2022-08-21T19:59:57;3.37;;;2.40;;
38413;SDS011;24195;48.654;9.294;2022-08-21T20:02:23;2.90;;;2.70;;
38413;SDS011;24195;48.654;9.294;2022-08-21T20:04:48;3.93;;;3.00;;
38413;SDS011;24195;48.654;9.294;2022-08-21T20:07:14;3.53;;;3.10;;
38413;SDS011;24195;48.654;9.294;2022-08-21T20:09:40;4.60;;;2.80;;
38413;SDS011;24195;48.654;9.294;2022-08-21T20:12:07;3.63;;;2.80;;
38413;SDS011;24195;48.654;9.294;2022-08-21T20:14:38;4.27;;;2.93;;
38413;SDS011;24195;48.654;9.294;2022-08-21T20:17:09;2.77;;;2.57;;
38413;SDS011;24195;48.654;9.294;2022-08-21T20:19:36;3.23;;;2.70;;
38413;SDS011;24195;48.654;9.294;2022-08-21T20:22:03;3.70;;;3.30;;
38413;SDS011;24195;48.654;9.294;2022-08-21T20:24:29;4.00;;;3.10;;
38413;SDS011;24195;48.654;9.294;2022-08-21T20:26:56;3.57;;;3.27;;
38413;SDS011;24195;48.654;9.294;2022-08-21T20:29:23;4.00;;;2.93;;
38413;SDS011;24195;48.654;9.294;2022-08-21T20:31:49;4.70;;;3.37;;
38413;SDS011;24195;48.654;9.294;2022-08-21T20:34:15;3.70;;;3.10;;
38413;SDS011;24195;48.654;9.294;2022-08-21T20:36:40;3.13;;;2.80;;
38413;SDS011;24195;48.654;9.294;2022-08-21T20:39:06;3.57;;;3.30;;
38413;SDS011;24195;48.654;9.294;2022-08-21T20:41:31;3.83;;;3.53;;
38413;SDS011;24195;48.654;9.294;2022-08-21T20:43:58;3.77;;;3.40;;
38413;SDS011;24195;48.654;9.294;2022-08-21T20:46:25;3.50;;;3.20;;
38413;SDS011;24195;48.654;9.294;2022-08-21T20:48:52;4.03;;;3.33;;
38413;SDS011;24195;48.654;9.294;2022-08-21T20:54:15;3.50;;;3.20;;
38413;SDS011;24195;48.654;9.294;2022-08-21T20:57:04;5.70;;;3.10;;
38413;SDS011;24195;48.654;9.294;2022-08-21T21:00:05;3.97;;;3.30;;
38413;SDS011;24195;48.654;9.294;2022-08-21T21:05:13;5.57;;;3.53;;
38413;SDS011;24195;48.654;9.294;2022-08-21T21:08:04;3.60;;;3.30;;
38413;SDS011;24195;48.654;9.294;2022-08-21T21:10:36;4.00;;;3.70;;
38413;SDS011;24195;48.654;9.294;2022-08-21T21:13:28;4.53;;;3.63;;
38413;SDS011;24195;48.654;9.294;2022-08-21T21:15:59;3.50;;;3.30;;
38413;SDS011;24195;48.654;9.294;2022-08-21T21:18:30;3.40;;;3.10;;
38413;SDS011;24195;48.654;9.294;2022-08-21T21:21:17;4.67;;;3.13;;
38413;SDS011;24195;48.654;9.294;2022-08-21T21:31:47;3.63;;;3.33;;
38413;SDS011;24195;48.654;9.294;2022-08-21T21:34:15;4.40;;;3.30;;
38413;SDS011;24195;48.654;9.294;2022-08-21T21:36:42;3.80;;;3.37;;
38413;SDS011;24195;48.654;9.294;2022-08-21T21:39:28;4.40;;;4.00;;
38413;SDS011;24195;48.654;9.294;2022-08-21T21:42:10;3.93;;;3.53;;
38413;SDS011;24195;48.654;9.294;2022-08-21T21:47:20;5.30;;;4.00;;
38413;SDS011;24195;48.654;9.294;2022-08-21T22:03:38;3.47;;;3.20;;
38413;SDS011;24195;48.654;9.294;2022-08-21T22:06:14;4.30;;;3.73;;
38413;SDS011;24195;48.654;9.294;2022-08-21T22:08:58;4.93;;;3.30;;
38413;SDS011;24195;48.654;9.294;2022-08-21T22:11:29;5.80;;;3.50;;
38413;SDS011;24195;48.654;9.294;2022-08-21T22:14:17;5.50;;;3.27;;